ARG1920 SABE-SAWH
Flight info
| Callsign | ARG1920 |
|---|---|
| Flight time | 3h 25m |
| Altitude | 34000 |
| Route | PAL9 GBE UP664 DIL UT662 ASKAS UT704 DABLI DABLI2 |
| Aircraft | B738/M-SDE2E3FGHIRWXY/LB1 |
Departure
| Time | 2026-05-04 16:00 |
|---|---|
| Airport | Aeroparque Jorge Newbery (SABE) |
Arrival
| Time | 2026-05-04 19:25 |
|---|---|
| Airport | Ushuaia - Malvinas Argentinas International Airport (SAWH) |
| Time | Latitude | Longitude | Altitude | Speed | Heading |
|---|---|---|---|---|---|
| 2026-05-04 15:21 | -34.55839 | -58.41372 | 26 ft | 0 kts | 210° |
| 2026-05-04 15:28 | -34.55820 | -58.41410 | 26 ft | 0 kts | 207° |
| 2026-05-04 15:51 | -34.55816 | -58.41408 | 26 ft | 2 kts | 208° |
| 2026-05-04 15:51 | -34.55803 | -58.41399 | 26 ft | 3 kts | 223° |
| 2026-05-04 15:52 | -34.55793 | -58.41381 | 26 ft | 3 kts | 266° |
| 2026-05-04 15:52 | -34.55796 | -58.41358 | 26 ft | 3 kts | 292° |
| 2026-05-04 15:52 | -34.55802 | -58.41343 | 26 ft | 1 kts | 303° |
| 2026-05-04 15:52 | -34.55804 | -58.41339 | 26 ft | 0 kts | 303° |
| 2026-05-04 15:55 | -34.55802 | -58.41342 | 26 ft | 4 kts | 303° |
| 2026-05-04 15:55 | -34.55773 | -58.41396 | 26 ft | 9 kts | 303° |
| 2026-05-04 15:56 | -34.55737 | -58.41467 | 26 ft | 11 kts | 300° |
| 2026-05-04 15:56 | -34.55741 | -58.41568 | 26 ft | 17 kts | 215° |
| 2026-05-04 15:56 | -34.55803 | -58.41574 | 26 ft | 14 kts | 129° |
| 2026-05-04 15:56 | -34.55865 | -58.41435 | 26 ft | 20 kts | 118° |
| 2026-05-04 15:57 | -34.55926 | -58.41291 | 26 ft | 19 kts | 120° |
| 2026-05-04 15:57 | -34.56026 | -58.41129 | 26 ft | 27 kts | 127° |
| 2026-05-04 15:57 | -34.56135 | -58.40955 | 26 ft | 24 kts | 122° |
| 2026-05-04 15:57 | -34.56173 | -58.40827 | 26 ft | 13 kts | 111° |
| 2026-05-04 15:58 | -34.56239 | -58.40701 | 26 ft | 22 kts | 124° |
| 2026-05-04 15:58 | -34.56326 | -58.40557 | 26 ft | 21 kts | 137° |
| 2026-05-04 15:58 | -34.56433 | -58.40444 | 26 ft | 20 kts | 139° |
| 2026-05-04 15:58 | -34.56519 | -58.40378 | 26 ft | 11 kts | 206° |
| 2026-05-04 15:59 | -34.56549 | -58.40451 | 26 ft | 17 kts | 297° |
| 2026-05-04 15:59 | -34.56350 | -58.40809 | 26 ft | 91 kts | 304° |
| 2026-05-04 15:59 | -34.55859 | -58.41691 | 58 ft | 156 kts | 304° |
| 2026-05-04 15:59 | -34.55212 | -58.42860 | 588 ft | 177 kts | 304° |
| 2026-05-04 16:00 | -34.54478 | -58.44059 | 1551 ft | 180 kts | 315° |
| 2026-05-04 16:00 | -34.53281 | -58.44587 | 2092 ft | 202 kts | 358° |
| 2026-05-04 16:00 | -34.51891 | -58.43910 | 2448 ft | 228 kts | 34° |
| 2026-05-04 16:00 | -34.50851 | -58.42361 | 2934 ft | 253 kts | 59° |
| 2026-05-04 16:01 | -34.50409 | -58.40226 | 3424 ft | 277 kts | 86° |
| 2026-05-04 16:01 | -34.50652 | -58.37872 | 4218 ft | 284 kts | 103° |
| 2026-05-04 16:01 | -34.51095 | -58.35499 | 5103 ft | 288 kts | 104° |
| 2026-05-04 16:01 | -34.51603 | -58.33140 | 5891 ft | 295 kts | 107° |
| 2026-05-04 16:02 | -34.52173 | -58.30728 | 6690 ft | 301 kts | 108° |
| 2026-05-04 16:02 | -34.52865 | -58.28324 | 7465 ft | 303 kts | 121° |
| 2026-05-04 16:02 | -34.55934 | -58.25150 | 9069 ft | 288 kts | 169° |
| 2026-05-04 16:03 | -34.57866 | -58.24856 | 9900 ft | 278 kts | 188° |
| 2026-05-04 16:03 | -34.59788 | -58.25098 | 10690 ft | 278 kts | 195° |
| 2026-05-04 16:03 | -34.61731 | -58.25488 | 11185 ft | 292 kts | 197° |
| 2026-05-04 16:03 | -34.63795 | -58.25935 | 11471 ft | 312 kts | 197° |
| 2026-05-04 16:04 | -34.66019 | -58.26396 | 11736 ft | 333 kts | 196° |
| 2026-05-04 16:04 | -34.70791 | -58.27334 | 12632 ft | 356 kts | 195° |
| 2026-05-04 16:04 | -34.73253 | -58.27801 | 13269 ft | 360 kts | 195° |
| 2026-05-04 16:05 | -34.75742 | -58.28267 | 13883 ft | 366 kts | 195° |
| 2026-05-04 16:05 | -34.78266 | -58.28735 | 14505 ft | 369 kts | 196° |
| 2026-05-04 16:05 | -34.83373 | -58.29674 | 15946 ft | 371 kts | 196° |
| 2026-05-04 16:06 | -34.85892 | -58.30134 | 16586 ft | 373 kts | 196° |
| 2026-05-04 16:06 | -34.92822 | -58.31390 | 18237 ft | 379 kts | 195° |
| 2026-05-04 16:07 | -34.96279 | -58.32018 | 19029 ft | 381 kts | 195° |
| 2026-05-04 16:07 | -35.04246 | -58.33467 | 20648 ft | 389 kts | 196° |
| 2026-05-04 16:08 | -35.06926 | -58.33956 | 21162 ft | 392 kts | 196° |
| 2026-05-04 16:08 | -35.15095 | -58.35448 | 22601 ft | 399 kts | 197° |
| 2026-05-04 16:09 | -35.20610 | -58.36456 | 23482 ft | 403 kts | 197° |
| 2026-05-04 16:09 | -35.26192 | -58.37479 | 24315 ft | 408 kts | 197° |
| 2026-05-04 16:10 | -35.31833 | -58.38514 | 25139 ft | 411 kts | 197° |
| 2026-05-04 16:11 | -35.40390 | -58.40086 | 26277 ft | 417 kts | 197° |
| 2026-05-04 16:11 | -35.43272 | -58.40616 | 26628 ft | 419 kts | 197° |
| 2026-05-04 16:12 | -35.51978 | -58.42215 | 27668 ft | 423 kts | 197° |
| 2026-05-04 16:12 | -35.60703 | -58.43829 | 28759 ft | 424 kts | 197° |
| 2026-05-04 16:13 | -35.66533 | -58.44910 | 29689 ft | 419 kts | 197° |
| 2026-05-04 16:13 | -35.72258 | -58.45990 | 30662 ft | 411 kts | 199° |
| 2026-05-04 16:14 | -35.77680 | -58.47865 | 31318 ft | 402 kts | 208° |
| 2026-05-04 16:14 | -35.82828 | -58.50423 | 31946 ft | 401 kts | 209° |
| 2026-05-04 16:15 | -35.90569 | -58.54388 | 32853 ft | 402 kts | 209° |
| 2026-05-04 16:16 | -35.95738 | -58.57038 | 33435 ft | 403 kts | 209° |
| 2026-05-04 16:16 | -36.03525 | -58.61036 | 33964 ft | 407 kts | 209° |
| 2026-05-04 16:17 | -36.08759 | -58.63714 | 33964 ft | 406 kts | 209° |
| 2026-05-04 16:18 | -36.19148 | -58.69031 | 33964 ft | 404 kts | 209° |
| 2026-05-04 16:19 | -36.32072 | -58.75690 | 33964 ft | 403 kts | 209° |
| 2026-05-04 16:20 | -36.45017 | -58.82387 | 33964 ft | 403 kts | 209° |
| 2026-05-04 16:22 | -36.57960 | -58.89109 | 33964 ft | 403 kts | 209° |
| 2026-05-04 16:23 | -36.73491 | -58.97207 | 33964 ft | 403 kts | 209° |
| 2026-05-04 16:25 | -36.89025 | -59.05343 | 33964 ft | 405 kts | 210° |
| 2026-05-04 16:26 | -37.07223 | -59.14907 | 33964 ft | 405 kts | 210° |
| 2026-05-04 16:28 | -37.20187 | -59.21771 | 33894 ft | 403 kts | 210° |
| 2026-05-04 16:29 | -37.39037 | -59.29423 | 33876 ft | 407 kts | 204° |
| 2026-05-04 16:31 | -37.52544 | -59.34657 | 33876 ft | 407 kts | 204° |
| 2026-05-04 16:32 | -37.68769 | -59.40955 | 33876 ft | 406 kts | 204° |
| 2026-05-04 16:33 | -37.79543 | -59.45168 | 33876 ft | 405 kts | 204° |
| 2026-05-04 16:34 | -37.87616 | -59.48335 | 33876 ft | 405 kts | 204° |
| 2026-05-04 16:35 | -38.02870 | -59.54328 | 33876 ft | 406 kts | 204° |
| 2026-05-04 16:36 | -38.11812 | -59.57858 | 33876 ft | 404 kts | 204° |
| 2026-05-04 16:37 | -38.19010 | -59.60713 | 33876 ft | 407 kts | 205° |
| 2026-05-04 16:38 | -38.29785 | -59.64996 | 33876 ft | 404 kts | 204° |
| 2026-05-04 16:39 | -38.43262 | -59.70379 | 33876 ft | 406 kts | 205° |
| 2026-05-04 16:40 | -38.53980 | -59.74683 | 33876 ft | 406 kts | 206° |
| 2026-05-04 16:41 | -38.67471 | -59.80104 | 33875 ft | 405 kts | 205° |
| 2026-05-04 16:43 | -38.80988 | -59.85539 | 33876 ft | 408 kts | 206° |
| 2026-05-04 16:43 | -38.89097 | -59.88819 | 33876 ft | 407 kts | 206° |
| 2026-05-04 16:45 | -39.05307 | -59.95402 | 33876 ft | 407 kts | 206° |
| 2026-05-04 16:46 | -39.18802 | -60.00908 | 33876 ft | 407 kts | 206° |
| 2026-05-04 16:47 | -39.29583 | -60.05322 | 33876 ft | 407 kts | 206° |
| 2026-05-04 16:48 | -39.40392 | -60.09762 | 33875 ft | 406 kts | 206° |
| 2026-05-04 16:49 | -39.51155 | -60.14198 | 33876 ft | 406 kts | 206° |
| 2026-05-04 16:50 | -39.61919 | -60.18648 | 33876 ft | 405 kts | 206° |
| 2026-05-04 16:51 | -39.69964 | -60.21984 | 33876 ft | 408 kts | 206° |
| 2026-05-04 16:52 | -39.80767 | -60.26476 | 33876 ft | 407 kts | 206° |
| 2026-05-04 16:53 | -39.88873 | -60.29857 | 33876 ft | 407 kts | 206° |
| 2026-05-04 16:54 | -39.99671 | -60.34373 | 33876 ft | 407 kts | 206° |
| 2026-05-04 16:55 | -40.15829 | -60.41160 | 33876 ft | 407 kts | 206° |
| 2026-05-04 16:56 | -40.29322 | -60.46837 | 33876 ft | 407 kts | 206° |
| 2026-05-04 16:57 | -40.37408 | -60.50269 | 33876 ft | 407 kts | 206° |
| 2026-05-04 16:58 | -40.48194 | -60.54855 | 33876 ft | 407 kts | 206° |
| 2026-05-04 17:00 | -40.64483 | -60.61284 | 33876 ft | 408 kts | 205° |
| 2026-05-04 17:01 | -40.78090 | -60.66647 | 33876 ft | 408 kts | 205° |
| 2026-05-04 17:02 | -40.88978 | -60.70929 | 33876 ft | 408 kts | 205° |
| 2026-05-04 17:03 | -40.97151 | -60.74157 | 33876 ft | 408 kts | 205° |
| 2026-05-04 17:03 | -41.05308 | -60.77394 | 33876 ft | 408 kts | 205° |
| 2026-05-04 17:04 | -41.16156 | -60.81715 | 33876 ft | 408 kts | 205° |
| 2026-05-04 17:05 | -41.27026 | -60.86060 | 33876 ft | 408 kts | 205° |
| 2026-05-04 17:06 | -41.35175 | -60.89328 | 33876 ft | 408 kts | 205° |
| 2026-05-04 17:07 | -41.42406 | -60.92235 | 33876 ft | 408 kts | 205° |
| 2026-05-04 17:07 | -41.48756 | -60.94793 | 33876 ft | 408 kts | 205° |
| 2026-05-04 17:08 | -41.56917 | -60.98088 | 33876 ft | 408 kts | 205° |
| 2026-05-04 17:09 | -41.62344 | -61.00285 | 33876 ft | 408 kts | 205° |
| 2026-05-04 17:09 | -41.67740 | -61.02472 | 33876 ft | 408 kts | 205° |
| 2026-05-04 17:10 | -41.81311 | -61.07991 | 33876 ft | 407 kts | 205° |
| 2026-05-04 17:11 | -41.86736 | -61.10204 | 33876 ft | 407 kts | 205° |
| 2026-05-04 17:12 | -41.94869 | -61.13529 | 33876 ft | 407 kts | 205° |
| 2026-05-04 17:13 | -42.08418 | -61.19088 | 33876 ft | 407 kts | 205° |
| 2026-05-04 17:14 | -42.19260 | -61.23554 | 33876 ft | 407 kts | 205° |
| 2026-05-04 17:15 | -42.27352 | -61.26898 | 33876 ft | 407 kts | 205° |
| 2026-05-04 17:16 | -42.38182 | -61.31388 | 33876 ft | 407 kts | 205° |
| 2026-05-04 17:17 | -42.49010 | -61.35893 | 33876 ft | 407 kts | 205° |
| 2026-05-04 17:18 | -42.59835 | -61.40413 | 33876 ft | 407 kts | 205° |
| 2026-05-04 17:19 | -42.70660 | -61.44934 | 33876 ft | 407 kts | 205° |
| 2026-05-04 17:20 | -42.81479 | -61.49488 | 33876 ft | 407 kts | 206° |
| 2026-05-04 17:20 | -42.89553 | -61.52904 | 33876 ft | 407 kts | 206° |
| 2026-05-04 17:21 | -42.99480 | -61.57111 | 33876 ft | 407 kts | 205° |
| 2026-05-04 17:22 | -43.04848 | -61.59386 | 33876 ft | 406 kts | 206° |
| 2026-05-04 17:23 | -43.15661 | -61.63993 | 33876 ft | 406 kts | 206° |
| 2026-05-04 17:24 | -43.23760 | -61.67458 | 33876 ft | 406 kts | 206° |
| 2026-05-04 17:25 | -43.34556 | -61.72067 | 33876 ft | 406 kts | 206° |
| 2026-05-04 17:26 | -43.45355 | -61.76685 | 33876 ft | 406 kts | 206° |
| 2026-05-04 17:27 | -43.58808 | -61.82481 | 33876 ft | 406 kts | 206° |
| 2026-05-04 17:28 | -43.69588 | -61.87147 | 33876 ft | 406 kts | 206° |
| 2026-05-04 17:29 | -43.85769 | -61.94186 | 33876 ft | 406 kts | 206° |
| 2026-05-04 17:31 | -43.99206 | -62.00061 | 33876 ft | 406 kts | 206° |
| 2026-05-04 17:32 | -44.12668 | -62.05976 | 33876 ft | 406 kts | 206° |
| 2026-05-04 17:33 | -44.23429 | -62.10724 | 33876 ft | 406 kts | 206° |
| 2026-05-04 17:34 | -44.34186 | -62.15489 | 33876 ft | 405 kts | 206° |
| 2026-05-04 17:35 | -44.47637 | -62.21473 | 33876 ft | 405 kts | 206° |
| 2026-05-04 17:36 | -44.53014 | -62.23874 | 33876 ft | 405 kts | 206° |
| 2026-05-04 17:36 | -44.58347 | -62.26259 | 33876 ft | 405 kts | 206° |
| 2026-05-04 17:37 | -44.63727 | -62.28670 | 33876 ft | 405 kts | 206° |
| 2026-05-04 17:37 | -44.69100 | -62.31083 | 33876 ft | 405 kts | 206° |
| 2026-05-04 17:38 | -44.74483 | -62.33488 | 33876 ft | 405 kts | 206° |
| 2026-05-04 17:38 | -44.79857 | -62.35906 | 33876 ft | 405 kts | 206° |
| 2026-05-04 17:39 | -44.87908 | -62.39553 | 33876 ft | 405 kts | 206° |
| 2026-05-04 17:39 | -44.93243 | -62.41978 | 33876 ft | 405 kts | 206° |
| 2026-05-04 17:40 | -44.98611 | -62.44418 | 33876 ft | 405 kts | 206° |
| 2026-05-04 17:40 | -45.03975 | -62.46862 | 33876 ft | 405 kts | 206° |
| 2026-05-04 17:41 | -45.09334 | -62.49306 | 33876 ft | 405 kts | 206° |
| 2026-05-04 17:41 | -45.14691 | -62.51760 | 33876 ft | 405 kts | 206° |
| 2026-05-04 17:42 | -45.20050 | -62.54224 | 33876 ft | 405 kts | 206° |
| 2026-05-04 17:42 | -45.25409 | -62.56693 | 33876 ft | 405 kts | 206° |
| 2026-05-04 17:43 | -45.30766 | -62.59167 | 33876 ft | 405 kts | 206° |
| 2026-05-04 17:43 | -45.36121 | -62.61634 | 33876 ft | 405 kts | 206° |
| 2026-05-04 17:44 | -45.41480 | -62.64086 | 33876 ft | 405 kts | 206° |
| 2026-05-04 17:44 | -45.46848 | -62.66559 | 33876 ft | 405 kts | 206° |
| 2026-05-04 17:45 | -45.52171 | -62.69022 | 33876 ft | 404 kts | 206° |
| 2026-05-04 17:45 | -45.57529 | -62.71508 | 33876 ft | 404 kts | 206° |
| 2026-05-04 17:46 | -45.62879 | -62.73998 | 33876 ft | 404 kts | 206° |
| 2026-05-04 17:46 | -45.68228 | -62.76492 | 33876 ft | 404 kts | 206° |
| 2026-05-04 17:47 | -45.73582 | -62.78994 | 33876 ft | 404 kts | 206° |
| 2026-05-04 17:47 | -45.78932 | -62.81498 | 33876 ft | 404 kts | 206° |
| 2026-05-04 17:48 | -45.84275 | -62.84005 | 33876 ft | 404 kts | 206° |
| 2026-05-04 17:48 | -45.89628 | -62.86522 | 33876 ft | 404 kts | 206° |
| 2026-05-04 17:49 | -45.94938 | -62.89024 | 33876 ft | 404 kts | 206° |
| 2026-05-04 17:49 | -46.00285 | -62.91548 | 33876 ft | 404 kts | 206° |
| 2026-05-04 17:50 | -46.05627 | -62.94075 | 33876 ft | 404 kts | 206° |
| 2026-05-04 17:50 | -46.10967 | -62.96606 | 33876 ft | 404 kts | 206° |
| 2026-05-04 17:51 | -46.16303 | -62.99141 | 33876 ft | 404 kts | 206° |
| 2026-05-04 17:51 | -46.21644 | -63.01682 | 33876 ft | 404 kts | 206° |
| 2026-05-04 17:52 | -46.26975 | -63.04225 | 33876 ft | 404 kts | 206° |
| 2026-05-04 17:52 | -46.32313 | -63.06776 | 33876 ft | 404 kts | 206° |
| 2026-05-04 17:53 | -46.37647 | -63.09331 | 33876 ft | 404 kts | 206° |
| 2026-05-04 17:53 | -46.42986 | -63.11892 | 33876 ft | 404 kts | 207° |
| 2026-05-04 17:54 | -46.48316 | -63.14455 | 33876 ft | 404 kts | 207° |
| 2026-05-04 17:54 | -46.53651 | -63.17026 | 33876 ft | 404 kts | 207° |
| 2026-05-04 17:55 | -46.58981 | -63.19599 | 33876 ft | 404 kts | 207° |
| 2026-05-04 17:55 | -46.64305 | -63.22176 | 33876 ft | 404 kts | 207° |
| 2026-05-04 17:56 | -46.69639 | -63.24762 | 33876 ft | 403 kts | 207° |
| 2026-05-04 17:56 | -46.74962 | -63.27348 | 33876 ft | 403 kts | 207° |
| 2026-05-04 17:57 | -46.80259 | -63.29927 | 33876 ft | 403 kts | 207° |
| 2026-05-04 17:57 | -46.85594 | -63.32531 | 33876 ft | 403 kts | 207° |
| 2026-05-04 17:58 | -46.90919 | -63.35134 | 33876 ft | 403 kts | 207° |
| 2026-05-04 17:58 | -46.96237 | -63.37740 | 33876 ft | 403 kts | 207° |
| 2026-05-04 17:59 | -47.01560 | -63.40353 | 33876 ft | 403 kts | 207° |
| 2026-05-04 18:00 | -47.09512 | -63.44268 | 33876 ft | 403 kts | 207° |
| 2026-05-04 18:00 | -47.14830 | -63.46893 | 33876 ft | 403 kts | 207° |
| 2026-05-04 18:01 | -47.20153 | -63.49526 | 33876 ft | 403 kts | 207° |
| 2026-05-04 18:01 | -47.25477 | -63.52165 | 33876 ft | 403 kts | 207° |
| 2026-05-04 18:02 | -47.33456 | -63.56130 | 33876 ft | 403 kts | 207° |
| 2026-05-04 18:02 | -47.38731 | -63.58759 | 33876 ft | 403 kts | 207° |
| 2026-05-04 18:03 | -47.44077 | -63.61428 | 33876 ft | 403 kts | 207° |
| 2026-05-04 18:03 | -47.49356 | -63.64071 | 33876 ft | 403 kts | 207° |
| 2026-05-04 18:04 | -47.54668 | -63.66735 | 33876 ft | 403 kts | 207° |
| 2026-05-04 18:05 | -47.62627 | -63.70738 | 33876 ft | 403 kts | 207° |
| 2026-05-04 18:05 | -47.67933 | -63.73413 | 33876 ft | 403 kts | 207° |
| 2026-05-04 18:06 | -47.74998 | -63.76985 | 33876 ft | 403 kts | 207° |
| 2026-05-04 18:06 | -47.80300 | -63.79672 | 33876 ft | 403 kts | 207° |
| 2026-05-04 18:07 | -47.85599 | -63.82364 | 33876 ft | 402 kts | 207° |
| 2026-05-04 18:07 | -47.90903 | -63.85063 | 33876 ft | 402 kts | 207° |
| 2026-05-04 18:08 | -47.96200 | -63.87764 | 33876 ft | 403 kts | 207° |
| 2026-05-04 18:08 | -48.01509 | -63.90452 | 33876 ft | 402 kts | 207° |
| 2026-05-04 18:09 | -48.12100 | -63.95897 | 33876 ft | 402 kts | 207° |
| 2026-05-04 18:10 | -48.17389 | -63.98629 | 33876 ft | 402 kts | 207° |
| 2026-05-04 18:10 | -48.22680 | -64.01364 | 33876 ft | 402 kts | 207° |
| 2026-05-04 18:11 | -48.27972 | -64.04105 | 33876 ft | 402 kts | 207° |
| 2026-05-04 18:11 | -48.33230 | -64.06820 | 33876 ft | 402 kts | 207° |
| 2026-05-04 18:12 | -48.38517 | -64.09568 | 33876 ft | 402 kts | 207° |
| 2026-05-04 18:12 | -48.43799 | -64.12325 | 33876 ft | 402 kts | 207° |
| 2026-05-04 18:13 | -48.49087 | -64.15093 | 33876 ft | 402 kts | 207° |
| 2026-05-04 18:14 | -48.57009 | -64.19253 | 33876 ft | 402 kts | 207° |
| 2026-05-04 18:14 | -48.62301 | -64.22007 | 33876 ft | 402 kts | 207° |
| 2026-05-04 18:15 | -48.72875 | -64.27536 | 33876 ft | 402 kts | 207° |
| 2026-05-04 18:16 | -48.78159 | -64.30319 | 33876 ft | 402 kts | 207° |
| 2026-05-04 18:16 | -48.83407 | -64.33092 | 33876 ft | 402 kts | 207° |
| 2026-05-04 18:17 | -48.91332 | -64.37292 | 33876 ft | 402 kts | 207° |
| 2026-05-04 18:18 | -48.99241 | -64.41500 | 33876 ft | 402 kts | 207° |
| 2026-05-04 18:18 | -49.04516 | -64.44314 | 33876 ft | 401 kts | 207° |
| 2026-05-04 18:19 | -49.12431 | -64.48549 | 33876 ft | 401 kts | 207° |
| 2026-05-04 18:19 | -49.17702 | -64.51376 | 33876 ft | 401 kts | 207° |
| 2026-05-04 18:20 | -49.22973 | -64.54211 | 33876 ft | 401 kts | 207° |
| 2026-05-04 18:20 | -49.28207 | -64.57032 | 33876 ft | 401 kts | 207° |
| 2026-05-04 18:21 | -49.33466 | -64.59873 | 33876 ft | 401 kts | 207° |
| 2026-05-04 18:21 | -49.38730 | -64.62722 | 33876 ft | 401 kts | 207° |
| 2026-05-04 18:22 | -49.43999 | -64.65582 | 33876 ft | 401 kts | 208° |
| 2026-05-04 18:22 | -49.49258 | -64.68442 | 33876 ft | 401 kts | 208° |
| 2026-05-04 18:23 | -49.54521 | -64.71311 | 33876 ft | 401 kts | 208° |
| 2026-05-04 18:23 | -49.59777 | -64.74183 | 33876 ft | 401 kts | 208° |
| 2026-05-04 18:24 | -49.65044 | -64.77067 | 33876 ft | 401 kts | 208° |
| 2026-05-04 18:24 | -49.70295 | -64.79949 | 33876 ft | 401 kts | 208° |
| 2026-05-04 18:25 | -49.75554 | -64.82843 | 33876 ft | 401 kts | 208° |
| 2026-05-04 18:25 | -49.80774 | -64.85721 | 33876 ft | 401 kts | 208° |
| 2026-05-04 18:26 | -49.86024 | -64.88623 | 33876 ft | 401 kts | 208° |
| 2026-05-04 18:26 | -49.91284 | -64.91536 | 33876 ft | 401 kts | 208° |
| 2026-05-04 18:27 | -49.96529 | -64.94449 | 33876 ft | 401 kts | 208° |
| 2026-05-04 18:27 | -50.01778 | -64.97370 | 33876 ft | 401 kts | 208° |
| 2026-05-04 18:28 | -50.07025 | -65.00297 | 33876 ft | 401 kts | 208° |
| 2026-05-04 18:28 | -50.12271 | -65.03230 | 33876 ft | 400 kts | 208° |
| 2026-05-04 18:29 | -50.17517 | -65.06170 | 33876 ft | 400 kts | 208° |
| 2026-05-04 18:29 | -50.22769 | -65.09120 | 33876 ft | 400 kts | 208° |
| 2026-05-04 18:30 | -50.30629 | -65.13549 | 33876 ft | 400 kts | 208° |
| 2026-05-04 18:31 | -50.35871 | -65.16511 | 33876 ft | 400 kts | 208° |
| 2026-05-04 18:31 | -50.41076 | -65.19460 | 33876 ft | 400 kts | 208° |
| 2026-05-04 18:32 | -50.46266 | -65.22412 | 33874 ft | 389 kts | 209° |
| 2026-05-04 18:32 | -50.51260 | -65.25261 | 33874 ft | 374 kts | 210° |
| 2026-05-04 18:33 | -50.56047 | -65.27993 | 33874 ft | 360 kts | 210° |
| 2026-05-04 18:33 | -50.60679 | -65.30641 | 33873 ft | 347 kts | 210° |
| 2026-05-04 18:34 | -50.65134 | -65.33193 | 33873 ft | 335 kts | 211° |
| 2026-05-04 18:34 | -50.69437 | -65.35662 | 33872 ft | 324 kts | 211° |
| 2026-05-04 18:35 | -50.73637 | -65.38083 | 33880 ft | 327 kts | 210° |
| 2026-05-04 18:35 | -50.78004 | -65.40599 | 33884 ft | 345 kts | 209° |
| 2026-05-04 18:36 | -50.82644 | -65.43278 | 33884 ft | 363 kts | 209° |
| 2026-05-04 18:36 | -50.87498 | -65.46086 | 33881 ft | 380 kts | 208° |
| 2026-05-04 18:37 | -50.92565 | -65.49024 | 33878 ft | 395 kts | 208° |
| 2026-05-04 18:37 | -50.97785 | -65.52058 | 33876 ft | 402 kts | 208° |
| 2026-05-04 18:38 | -51.03029 | -65.55113 | 33876 ft | 400 kts | 208° |
| 2026-05-04 18:38 | -51.08250 | -65.58162 | 33876 ft | 400 kts | 208° |
| 2026-05-04 18:39 | -51.13472 | -65.61219 | 33876 ft | 400 kts | 208° |
| 2026-05-04 18:39 | -51.18649 | -65.64257 | 33876 ft | 400 kts | 208° |
| 2026-05-04 18:40 | -51.23873 | -65.67330 | 33876 ft | 400 kts | 208° |
| 2026-05-04 18:40 | -51.29084 | -65.70403 | 33876 ft | 399 kts | 208° |
| 2026-05-04 18:41 | -51.34298 | -65.73485 | 33876 ft | 399 kts | 208° |
| 2026-05-04 18:41 | -51.39520 | -65.76579 | 33876 ft | 399 kts | 208° |
| 2026-05-04 18:42 | -51.44725 | -65.79671 | 33876 ft | 399 kts | 208° |
| 2026-05-04 18:42 | -51.49912 | -65.82743 | 33876 ft | 400 kts | 208° |
| 2026-05-04 18:43 | -51.55125 | -65.85835 | 33876 ft | 399 kts | 208° |
| 2026-05-04 18:43 | -51.60332 | -65.88956 | 33876 ft | 399 kts | 208° |
| 2026-05-04 18:44 | -51.65532 | -65.92086 | 33876 ft | 399 kts | 208° |
| 2026-05-04 18:44 | -51.70734 | -65.95225 | 33876 ft | 399 kts | 208° |
| 2026-05-04 18:45 | -51.75934 | -65.98365 | 33876 ft | 399 kts | 208° |
| 2026-05-04 18:45 | -51.81148 | -66.01479 | 33876 ft | 400 kts | 207° |
| 2026-05-04 18:46 | -51.86424 | -66.04380 | 33876 ft | 401 kts | 207° |
| 2026-05-04 18:46 | -51.91705 | -66.07308 | 33876 ft | 400 kts | 207° |
| 2026-05-04 18:47 | -51.96968 | -66.10249 | 33876 ft | 400 kts | 207° |
| 2026-05-04 18:47 | -52.02200 | -66.13186 | 33876 ft | 400 kts | 207° |
| 2026-05-04 18:48 | -52.07494 | -66.16167 | 33876 ft | 400 kts | 207° |
| 2026-05-04 18:48 | -52.12730 | -66.19106 | 33876 ft | 400 kts | 207° |
| 2026-05-04 18:49 | -52.17990 | -66.22040 | 33876 ft | 400 kts | 207° |
| 2026-05-04 18:49 | -52.23258 | -66.25005 | 33876 ft | 400 kts | 207° |
| 2026-05-04 18:50 | -52.28515 | -66.27979 | 33876 ft | 400 kts | 207° |
| 2026-05-04 18:50 | -52.33778 | -66.30968 | 33876 ft | 400 kts | 207° |
| 2026-05-04 18:51 | -52.39034 | -66.33961 | 33876 ft | 400 kts | 207° |
| 2026-05-04 18:51 | -52.44298 | -66.36967 | 33876 ft | 400 kts | 207° |
| 2026-05-04 18:52 | -52.49554 | -66.39976 | 33876 ft | 400 kts | 207° |
| 2026-05-04 18:52 | -52.54770 | -66.42970 | 33876 ft | 400 kts | 207° |
| 2026-05-04 18:53 | -52.60055 | -66.46011 | 33876 ft | 400 kts | 207° |
| 2026-05-04 18:53 | -52.65274 | -66.49000 | 33876 ft | 400 kts | 207° |
| 2026-05-04 18:54 | -52.70527 | -66.52026 | 33876 ft | 400 kts | 207° |
| 2026-05-04 18:54 | -52.75779 | -66.55077 | 33876 ft | 400 kts | 208° |
| 2026-05-04 18:55 | -52.80131 | -66.57617 | 33876 ft | 399 kts | 208° |
| 2026-05-04 18:55 | -52.87995 | -66.62216 | 33876 ft | 399 kts | 208° |
| 2026-05-04 18:56 | -52.93236 | -66.65285 | 33876 ft | 399 kts | 208° |
| 2026-05-04 18:56 | -52.98437 | -66.68505 | 33876 ft | 398 kts | 209° |
| 2026-05-04 18:57 | -53.03623 | -66.71762 | 33876 ft | 398 kts | 209° |
| 2026-05-04 18:57 | -53.08765 | -66.75000 | 33876 ft | 398 kts | 209° |
| 2026-05-04 18:58 | -53.13961 | -66.78280 | 33876 ft | 398 kts | 209° |
| 2026-05-04 18:58 | -53.19132 | -66.81553 | 33876 ft | 397 kts | 209° |
| 2026-05-04 18:59 | -53.24274 | -66.84815 | 33876 ft | 393 kts | 209° |
| 2026-05-04 18:59 | -53.29404 | -66.88028 | 33852 ft | 394 kts | 209° |
| 2026-05-04 19:00 | -53.31969 | -66.89638 | 33551 ft | 391 kts | 209° |
| 2026-05-04 19:00 | -53.34489 | -66.91227 | 33173 ft | 383 kts | 209° |
| 2026-05-04 19:00 | -53.36969 | -66.92796 | 32713 ft | 379 kts | 210° |
| 2026-05-04 19:00 | -53.39424 | -66.94353 | 32262 ft | 375 kts | 210° |
| 2026-05-04 19:01 | -53.41821 | -66.95877 | 31825 ft | 371 kts | 210° |
| 2026-05-04 19:01 | -53.44219 | -66.97405 | 31390 ft | 366 kts | 210° |
| 2026-05-04 19:01 | -53.46601 | -66.98930 | 30629 ft | 372 kts | 203° |
| 2026-05-04 19:01 | -53.49079 | -67.00511 | 29532 ft | 390 kts | 202° |
| 2026-05-04 19:02 | -53.51635 | -67.02146 | 29101 ft | 388 kts | 202° |
| 2026-05-04 19:02 | -53.54130 | -67.03745 | 28868 ft | 379 kts | 202° |
| 2026-05-04 19:02 | -53.56579 | -67.05316 | 28494 ft | 376 kts | 202° |
| 2026-05-04 19:02 | -53.59020 | -67.06885 | 28068 ft | 373 kts | 202° |
| 2026-05-04 19:03 | -53.61436 | -67.08439 | 27632 ft | 372 kts | 202° |
| 2026-05-04 19:03 | -53.63840 | -67.09989 | 27189 ft | 370 kts | 202° |
| 2026-05-04 19:03 | -53.66238 | -67.11535 | 26742 ft | 368 kts | 202° |
| 2026-05-04 19:03 | -53.68629 | -67.13079 | 26288 ft | 367 kts | 202° |
| 2026-05-04 19:04 | -53.71014 | -67.14622 | 25836 ft | 365 kts | 202° |
| 2026-05-04 19:04 | -53.73380 | -67.16154 | 25383 ft | 364 kts | 202° |
| 2026-05-04 19:04 | -53.75740 | -67.17684 | 24932 ft | 362 kts | 202° |
| 2026-05-04 19:04 | -53.78088 | -67.19208 | 24483 ft | 360 kts | 202° |
| 2026-05-04 19:05 | -53.80395 | -67.20707 | 24038 ft | 359 kts | 202° |
| 2026-05-04 19:05 | -53.82752 | -67.22241 | 23583 ft | 357 kts | 202° |
| 2026-05-04 19:05 | -53.85035 | -67.23728 | 23140 ft | 355 kts | 202° |
| 2026-05-04 19:05 | -53.87336 | -67.25229 | 22692 ft | 353 kts | 202° |
| 2026-05-04 19:06 | -53.89628 | -67.26726 | 22244 ft | 351 kts | 202° |
| 2026-05-04 19:06 | -53.91902 | -67.28213 | 21799 ft | 350 kts | 202° |
| 2026-05-04 19:06 | -53.94164 | -67.29693 | 21355 ft | 348 kts | 202° |
| 2026-05-04 19:06 | -53.96415 | -67.31168 | 20913 ft | 346 kts | 202° |
| 2026-05-04 19:07 | -53.98655 | -67.32638 | 20474 ft | 344 kts | 202° |
| 2026-05-04 19:07 | -54.00873 | -67.34095 | 20038 ft | 342 kts | 202° |
| 2026-05-04 19:07 | -54.03092 | -67.35554 | 19603 ft | 340 kts | 202° |
| 2026-05-04 19:07 | -54.05295 | -67.37004 | 19171 ft | 338 kts | 202° |
| 2026-05-04 19:08 | -54.07483 | -67.38446 | 18743 ft | 336 kts | 202° |
| 2026-05-04 19:08 | -54.09664 | -67.39885 | 18315 ft | 334 kts | 202° |
| 2026-05-04 19:08 | -54.11795 | -67.41293 | 17898 ft | 332 kts | 202° |
| 2026-05-04 19:08 | -54.13945 | -67.42715 | 17477 ft | 331 kts | 202° |
| 2026-05-04 19:09 | -54.16080 | -67.44129 | 17061 ft | 329 kts | 202° |
| 2026-05-04 19:09 | -54.18207 | -67.45538 | 16645 ft | 327 kts | 202° |
| 2026-05-04 19:09 | -54.20324 | -67.46936 | 16235 ft | 325 kts | 202° |
| 2026-05-04 19:09 | -54.22423 | -67.48307 | 15826 ft | 323 kts | 202° |
| 2026-05-04 19:10 | -54.24517 | -67.49690 | 15421 ft | 321 kts | 202° |
| 2026-05-04 19:10 | -54.26580 | -67.51060 | 15019 ft | 318 kts | 202° |
| 2026-05-04 19:10 | -54.28639 | -67.52434 | 14620 ft | 316 kts | 202° |
| 2026-05-04 19:10 | -54.30689 | -67.53804 | 14221 ft | 314 kts | 203° |
| 2026-05-04 19:11 | -54.32718 | -67.55164 | 13829 ft | 312 kts | 203° |
| 2026-05-04 19:11 | -54.34734 | -67.56518 | 13438 ft | 310 kts | 203° |
| 2026-05-04 19:11 | -54.36731 | -67.57859 | 13051 ft | 307 kts | 203° |
| 2026-05-04 19:11 | -54.38716 | -67.59194 | 12660 ft | 306 kts | 202° |
| 2026-05-04 19:12 | -54.40691 | -67.60524 | 12270 ft | 305 kts | 202° |
| 2026-05-04 19:12 | -54.44618 | -67.63169 | 11517 ft | 302 kts | 202° |
| 2026-05-04 19:12 | -54.46569 | -67.64481 | 11151 ft | 300 kts | 202° |
| 2026-05-04 19:13 | -54.48521 | -67.65774 | 10789 ft | 299 kts | 199° |
| 2026-05-04 19:13 | -54.50529 | -67.66608 | 10434 ft | 298 kts | 189° |
| 2026-05-04 19:13 | -54.52597 | -67.66943 | 10073 ft | 297 kts | 183° |
| 2026-05-04 19:13 | -54.54653 | -67.67023 | 9717 ft | 296 kts | 181° |
| 2026-05-04 19:14 | -54.56707 | -67.67030 | 9464 ft | 291 kts | 181° |
| 2026-05-04 19:14 | -54.58700 | -67.67048 | 9371 ft | 281 kts | 181° |
| 2026-05-04 19:14 | -54.60649 | -67.67079 | 9077 ft | 279 kts | 181° |
| 2026-05-04 19:14 | -54.62591 | -67.67109 | 8760 ft | 280 kts | 181° |
| 2026-05-04 19:15 | -54.64536 | -67.67151 | 8455 ft | 279 kts | 181° |
| 2026-05-04 19:15 | -54.66461 | -67.67191 | 8400 ft | 272 kts | 181° |
| 2026-05-04 19:15 | -54.68346 | -67.67235 | 8389 ft | 271 kts | 181° |
| 2026-05-04 19:15 | -54.70216 | -67.67279 | 8082 ft | 276 kts | 181° |
| 2026-05-04 19:16 | -54.72193 | -67.67325 | 7630 ft | 282 kts | 181° |
| 2026-05-04 19:16 | -54.74168 | -67.67373 | 7217 ft | 286 kts | 180° |
| 2026-05-04 19:16 | -54.76165 | -67.67421 | 6859 ft | 287 kts | 181° |
| 2026-05-04 19:16 | -54.78138 | -67.67467 | 6722 ft | 280 kts | 181° |
| 2026-05-04 19:17 | -54.80050 | -67.67749 | 6617 ft | 272 kts | 193° |
| 2026-05-04 19:17 | -54.81667 | -67.69282 | 6498 ft | 266 kts | 224° |
| 2026-05-04 19:17 | -54.82576 | -67.72059 | 6119 ft | 271 kts | 256° |
| 2026-05-04 19:17 | -54.82513 | -67.75219 | 6040 ft | 265 kts | 282° |
| 2026-05-04 19:18 | -54.82105 | -67.78280 | 5948 ft | 258 kts | 277° |
| 2026-05-04 19:18 | -54.81985 | -67.81393 | 5600 ft | 262 kts | 269° |
| 2026-05-04 19:18 | -54.82046 | -67.84199 | 5307 ft | 264 kts | 265° |
| 2026-05-04 19:18 | -54.82224 | -67.87434 | 4973 ft | 267 kts | 262° |
| 2026-05-04 19:19 | -54.82477 | -67.90592 | 4648 ft | 269 kts | 260° |
| 2026-05-04 19:19 | -54.82781 | -67.93798 | 4319 ft | 271 kts | 260° |
| 2026-05-04 19:19 | -54.83076 | -67.97000 | 4105 ft | 268 kts | 261° |
| 2026-05-04 19:19 | -54.83260 | -68.00139 | 4177 ft | 251 kts | 265° |
| 2026-05-04 19:20 | -54.83355 | -68.03042 | 4045 ft | 232 kts | 267° |
| 2026-05-04 19:20 | -54.83385 | -68.05732 | 3909 ft | 215 kts | 269° |
| 2026-05-04 19:20 | -54.83443 | -68.08258 | 3700 ft | 206 kts | 265° |
| 2026-05-04 19:20 | -54.83551 | -68.10754 | 3111 ft | 213 kts | 264° |
| 2026-05-04 19:21 | -54.83692 | -68.13395 | 2398 ft | 224 kts | 262° |
| 2026-05-04 19:21 | -54.83772 | -68.16107 | 2023 ft | 226 kts | 268° |
| 2026-05-04 19:21 | -54.83803 | -68.18799 | 1870 ft | 219 kts | 268° |
| 2026-05-04 19:21 | -54.83834 | -68.21378 | 1791 ft | 208 kts | 268° |
| 2026-05-04 19:22 | -54.84093 | -68.23757 | 1677 ft | 196 kts | 244° |
| 2026-05-04 19:22 | -54.84956 | -68.25356 | 1680 ft | 174 kts | 214° |
| 2026-05-04 19:22 | -54.85940 | -68.26474 | 1676 ft | 164 kts | 212° |
| 2026-05-04 19:22 | -54.86877 | -68.27536 | 1655 ft | 156 kts | 212° |
| 2026-05-04 19:23 | -54.87712 | -68.28635 | 1594 ft | 147 kts | 224° |
| 2026-05-04 19:23 | -54.88119 | -68.30218 | 1513 ft | 147 kts | 267° |
| 2026-05-04 19:23 | -54.87777 | -68.31855 | 1551 ft | 149 kts | 303° |
| 2026-05-04 19:23 | -54.87052 | -68.33208 | 1359 ft | 154 kts | 320° |
| 2026-05-04 19:24 | -54.86199 | -68.34373 | 997 ft | 157 kts | 322° |
| 2026-05-04 19:24 | -54.85231 | -68.34907 | 748 ft | 146 kts | 13° |
| 2026-05-04 19:24 | -54.84528 | -68.33716 | 450 ft | 150 kts | 65° |
| 2026-05-04 19:24 | -54.84420 | -68.32009 | 233 ft | 140 kts | 87° |
| 2026-05-04 19:25 | -54.84365 | -68.30368 | 111 ft | 128 kts | 86° |
| 2026-05-04 19:25 | -54.84323 | -68.29277 | 110 ft | 51 kts | 86° |
| 2026-05-04 19:25 | -54.84307 | -68.28861 | 110 ft | 33 kts | 86° |
| 2026-05-04 19:25 | -54.84312 | -68.28533 | 110 ft | 5 kts | 70° |
| 2026-05-04 19:26 | -54.84294 | -68.28549 | 110 ft | 7 kts | 276° |
| 2026-05-04 19:26 | -54.84303 | -68.28780 | 110 ft | 30 kts | 266° |
| 2026-05-04 19:26 | -54.84317 | -68.29159 | 110 ft | 30 kts | 266° |
| 2026-05-04 19:26 | -54.84329 | -68.29506 | 110 ft | 28 kts | 266° |
| 2026-05-04 19:27 | -54.84343 | -68.29823 | 110 ft | 25 kts | 266° |
| 2026-05-04 19:27 | -54.84353 | -68.30109 | 110 ft | 23 kts | 266° |
| 2026-05-04 19:27 | -54.84364 | -68.30376 | 110 ft | 22 kts | 266° |
| 2026-05-04 19:27 | -54.84373 | -68.30633 | 110 ft | 21 kts | 266° |
| 2026-05-04 19:28 | -54.84382 | -68.30879 | 110 ft | 20 kts | 274° |
| 2026-05-04 19:28 | -54.84295 | -68.30959 | 110 ft | 11 kts | 356° |
| 2026-05-04 19:28 | -54.84218 | -68.30968 | 110 ft | 11 kts | 356° |
| 2026-05-04 19:28 | -54.84146 | -68.30976 | 110 ft | 10 kts | 356° |
| 2026-05-04 19:29 | -54.84093 | -68.31034 | 110 ft | 10 kts | 273° |
| 2026-05-04 19:29 | -54.84096 | -68.31114 | 110 ft | 6 kts | 266° |
| 2026-05-04 19:29 | -54.84080 | -68.31164 | 110 ft | 6 kts | 349° |
| 2026-05-04 19:29 | -54.84042 | -68.31173 | 110 ft | 5 kts | 348° |
| 2026-05-04 19:30 | -54.84024 | -68.31179 | 110 ft | 0 kts | 348° |